sensor_id;sensor_type;location;lat;lon;timestamp;P1;durP1;ratioP1;P2;durP2;ratioP2
24650;SDS011;12783;48.824;8.662;2022-08-21T00:01:41;3.38;;;1.80;;
24650;SDS011;12783;48.824;8.662;2022-08-21T00:04:08;7.55;;;1.90;;
24650;SDS011;12783;48.824;8.662;2022-08-21T00:06:36;4.57;;;1.88;;
24650;SDS011;12783;48.824;8.662;2022-08-21T00:09:04;6.22;;;1.60;;
24650;SDS011;12783;48.824;8.662;2022-08-21T00:11:33;5.75;;;2.00;;
24650;SDS011;12783;48.824;8.662;2022-08-21T00:14:01;3.47;;;1.70;;
24650;SDS011;12783;48.824;8.662;2022-08-21T00:16:29;4.88;;;1.70;;
24650;SDS011;12783;48.824;8.662;2022-08-21T00:18:56;4.03;;;1.77;;
24650;SDS011;12783;48.824;8.662;2022-08-21T00:21:23;6.75;;;2.08;;
24650;SDS011;12783;48.824;8.662;2022-08-21T00:23:51;2.42;;;1.63;;
24650;SDS011;12783;48.824;8.662;2022-08-21T00:26:18;4.47;;;1.50;;
24650;SDS011;12783;48.824;8.662;2022-08-21T00:28:45;6.60;;;1.73;;
24650;SDS011;12783;48.824;8.662;2022-08-21T00:31:12;3.55;;;1.60;;
24650;SDS011;12783;48.824;8.662;2022-08-21T00:33:39;6.65;;;1.63;;
24650;SDS011;12783;48.824;8.662;2022-08-21T00:36:05;4.63;;;1.85;;
24650;SDS011;12783;48.824;8.662;2022-08-21T00:38:33;5.50;;;1.50;;
24650;SDS011;12783;48.824;8.662;2022-08-21T00:41:00;5.60;;;1.70;;
24650;SDS011;12783;48.824;8.662;2022-08-21T00:43:49;4.22;;;1.92;;
24650;SDS011;12783;48.824;8.662;2022-08-21T00:46:17;4.45;;;1.88;;
24650;SDS011;12783;48.824;8.662;2022-08-21T00:48:44;5.47;;;2.17;;
24650;SDS011;12783;48.824;8.662;2022-08-21T00:51:12;4.30;;;2.00;;
24650;SDS011;12783;48.824;8.662;2022-08-21T00:53:42;5.57;;;1.95;;
24650;SDS011;12783;48.824;8.662;2022-08-21T00:56:17;3.78;;;2.00;;
24650;SDS011;12783;48.824;8.662;2022-08-21T00:58:45;2.95;;;1.83;;
24650;SDS011;12783;48.824;8.662;2022-08-21T01:01:14;3.05;;;1.65;;
24650;SDS011;12783;48.824;8.662;2022-08-21T01:03:44;3.90;;;1.98;;
24650;SDS011;12783;48.824;8.662;2022-08-21T01:06:12;3.00;;;1.77;;
24650;SDS011;12783;48.824;8.662;2022-08-21T01:08:39;3.55;;;1.95;;
24650;SDS011;12783;48.824;8.662;2022-08-21T01:11:12;7.35;;;1.83;;
24650;SDS011;12783;48.824;8.662;2022-08-21T01:13:41;4.97;;;2.00;;
24650;SDS011;12783;48.824;8.662;2022-08-21T01:16:12;5.88;;;2.03;;
24650;SDS011;12783;48.824;8.662;2022-08-21T01:18:41;3.95;;;2.05;;
24650;SDS011;12783;48.824;8.662;2022-08-21T01:21:08;5.22;;;2.00;;
24650;SDS011;12783;48.824;8.662;2022-08-21T01:23:41;4.72;;;1.80;;
24650;SDS011;12783;48.824;8.662;2022-08-21T01:26:10;3.25;;;1.85;;
24650;SDS011;12783;48.824;8.662;2022-08-21T01:28:39;3.60;;;1.90;;
24650;SDS011;12783;48.824;8.662;2022-08-21T01:31:12;6.10;;;2.22;;
24650;SDS011;12783;48.824;8.662;2022-08-21T01:33:42;3.80;;;2.10;;
24650;SDS011;12783;48.824;8.662;2022-08-21T01:36:09;3.05;;;1.65;;
24650;SDS011;12783;48.824;8.662;2022-08-21T01:38:36;5.68;;;2.17;;
24650;SDS011;12783;48.824;8.662;2022-08-21T01:41:03;5.65;;;2.08;;
24650;SDS011;12783;48.824;8.662;2022-08-21T01:43:30;6.00;;;2.03;;
24650;SDS011;12783;48.824;8.662;2022-08-21T01:46:05;6.45;;;1.90;;
24650;SDS011;12783;48.824;8.662;2022-08-21T01:48:31;3.72;;;1.92;;
24650;SDS011;12783;48.824;8.662;2022-08-21T01:50:58;5.80;;;2.13;;
24650;SDS011;12783;48.824;8.662;2022-08-21T01:53:25;4.43;;;2.03;;
24650;SDS011;12783;48.824;8.662;2022-08-21T01:55:58;6.53;;;2.10;;
24650;SDS011;12783;48.824;8.662;2022-08-21T01:58:25;9.68;;;2.20;;
24650;SDS011;12783;48.824;8.662;2022-08-21T02:00:52;4.15;;;1.92;;
24650;SDS011;12783;48.824;8.662;2022-08-21T02:03:19;4.45;;;1.90;;
24650;SDS011;12783;48.824;8.662;2022-08-21T02:06:01;5.72;;;2.08;;
24650;SDS011;12783;48.824;8.662;2022-08-21T02:08:29;4.63;;;1.90;;
24650;SDS011;12783;48.824;8.662;2022-08-21T02:10:55;5.35;;;2.10;;
24650;SDS011;12783;48.824;8.662;2022-08-21T02:13:22;5.85;;;2.35;;
24650;SDS011;12783;48.824;8.662;2022-08-21T02:15:49;5.78;;;2.33;;
24650;SDS011;12783;48.824;8.662;2022-08-21T02:18:16;6.43;;;2.50;;
24650;SDS011;12783;48.824;8.662;2022-08-21T02:20:44;3.65;;;2.00;;
24650;SDS011;12783;48.824;8.662;2022-08-21T02:23:21;3.90;;;2.05;;
24650;SDS011;12783;48.824;8.662;2022-08-21T02:25:59;6.25;;;2.40;;
24650;SDS011;12783;48.824;8.662;2022-08-21T02:28:30;4.65;;;2.17;;
24650;SDS011;12783;48.824;8.662;2022-08-21T02:30:57;4.50;;;2.20;;
24650;SDS011;12783;48.824;8.662;2022-08-21T02:33:24;4.35;;;2.20;;
24650;SDS011;12783;48.824;8.662;2022-08-21T02:35:51;6.28;;;2.55;;
24650;SDS011;12783;48.824;8.662;2022-08-21T02:38:20;7.90;;;2.40;;
24650;SDS011;12783;48.824;8.662;2022-08-21T02:40:59;4.80;;;2.40;;
24650;SDS011;12783;48.824;8.662;2022-08-21T02:43:27;7.93;;;2.25;;
24650;SDS011;12783;48.824;8.662;2022-08-21T02:45:54;5.18;;;1.98;;
24650;SDS011;12783;48.824;8.662;2022-08-21T02:48:23;7.35;;;2.58;;
24650;SDS011;12783;48.824;8.662;2022-08-21T02:50:54;6.28;;;2.40;;
24650;SDS011;12783;48.824;8.662;2022-08-21T02:53:26;4.93;;;2.43;;
24650;SDS011;12783;48.824;8.662;2022-08-21T02:55:54;4.95;;;2.33;;
24650;SDS011;12783;48.824;8.662;2022-08-21T02:58:24;5.20;;;2.17;;
24650;SDS011;12783;48.824;8.662;2022-08-21T03:00:56;4.88;;;2.33;;
24650;SDS011;12783;48.824;8.662;2022-08-21T03:03:24;4.60;;;2.50;;
24650;SDS011;12783;48.824;8.662;2022-08-21T03:05:52;5.38;;;2.30;;
24650;SDS011;12783;48.824;8.662;2022-08-21T03:08:20;8.52;;;2.75;;
24650;SDS011;12783;48.824;8.662;2022-08-21T03:10:50;4.18;;;2.15;;
24650;SDS011;12783;48.824;8.662;2022-08-21T03:13:18;4.40;;;2.40;;
24650;SDS011;12783;48.824;8.662;2022-08-21T03:15:47;5.97;;;2.65;;
24650;SDS011;12783;48.824;8.662;2022-08-21T03:18:15;5.55;;;2.40;;
24650;SDS011;12783;48.824;8.662;2022-08-21T03:20:42;6.82;;;2.25;;
24650;SDS011;12783;48.824;8.662;2022-08-21T03:23:09;7.15;;;2.97;;
24650;SDS011;12783;48.824;8.662;2022-08-21T03:25:43;6.50;;;3.00;;
24650;SDS011;12783;48.824;8.662;2022-08-21T03:28:13;5.15;;;2.38;;
24650;SDS011;12783;48.824;8.662;2022-08-21T03:30:42;5.43;;;2.45;;
24650;SDS011;12783;48.824;8.662;2022-08-21T03:33:09;8.90;;;2.35;;
24650;SDS011;12783;48.824;8.662;2022-08-21T03:35:40;5.15;;;2.70;;
24650;SDS011;12783;48.824;8.662;2022-08-21T03:38:10;5.32;;;2.60;;
24650;SDS011;12783;48.824;8.662;2022-08-21T03:40:38;5.63;;;2.40;;
24650;SDS011;12783;48.824;8.662;2022-08-21T03:43:06;3.28;;;2.42;;
24650;SDS011;12783;48.824;8.662;2022-08-21T03:45:35;4.50;;;2.47;;
24650;SDS011;12783;48.824;8.662;2022-08-21T03:48:03;6.00;;;2.70;;
24650;SDS011;12783;48.824;8.662;2022-08-21T03:50:32;8.48;;;2.60;;
24650;SDS011;12783;48.824;8.662;2022-08-21T03:53:06;6.72;;;2.95;;
24650;SDS011;12783;48.824;8.662;2022-08-21T03:55:42;3.72;;;2.40;;
24650;SDS011;12783;48.824;8.662;2022-08-21T03:58:09;6.07;;;2.70;;
24650;SDS011;12783;48.824;8.662;2022-08-21T04:00:42;4.43;;;2.92;;
24650;SDS011;12783;48.824;8.662;2022-08-21T04:03:11;6.13;;;2.63;;
24650;SDS011;12783;48.824;8.662;2022-08-21T04:05:37;4.75;;;2.30;;
24650;SDS011;12783;48.824;8.662;2022-08-21T04:08:05;5.95;;;2.63;;
24650;SDS011;12783;48.824;8.662;2022-08-21T04:10:33;5.22;;;2.40;;
24650;SDS011;12783;48.824;8.662;2022-08-21T04:13:01;6.95;;;2.50;;
24650;SDS011;12783;48.824;8.662;2022-08-21T04:15:29;7.82;;;2.80;;
24650;SDS011;12783;48.824;8.662;2022-08-21T04:17:56;7.45;;;2.58;;
24650;SDS011;12783;48.824;8.662;2022-08-21T04:20:23;5.47;;;2.70;;
24650;SDS011;12783;48.824;8.662;2022-08-21T04:22:51;3.65;;;2.58;;
24650;SDS011;12783;48.824;8.662;2022-08-21T04:25:19;6.10;;;2.63;;
24650;SDS011;12783;48.824;8.662;2022-08-21T04:27:47;6.60;;;2.50;;
24650;SDS011;12783;48.824;8.662;2022-08-21T04:30:14;7.22;;;2.42;;
24650;SDS011;12783;48.824;8.662;2022-08-21T04:32:42;5.45;;;2.40;;
24650;SDS011;12783;48.824;8.662;2022-08-21T04:35:10;6.22;;;2.38;;
24650;SDS011;12783;48.824;8.662;2022-08-21T04:37:38;6.15;;;2.50;;
24650;SDS011;12783;48.824;8.662;2022-08-21T04:40:08;6.15;;;2.45;;
24650;SDS011;12783;48.824;8.662;2022-08-21T04:42:41;9.07;;;2.60;;
24650;SDS011;12783;48.824;8.662;2022-08-21T04:45:27;5.05;;;2.70;;
24650;SDS011;12783;48.824;8.662;2022-08-21T04:47:56;4.88;;;2.50;;
24650;SDS011;12783;48.824;8.662;2022-08-21T04:50:37;4.28;;;2.58;;
24650;SDS011;12783;48.824;8.662;2022-08-21T04:53:14;6.78;;;2.33;;
24650;SDS011;12783;48.824;8.662;2022-08-21T04:55:44;6.60;;;2.47;;
24650;SDS011;12783;48.824;8.662;2022-08-21T04:58:12;6.38;;;2.80;;
24650;SDS011;12783;48.824;8.662;2022-08-21T05:00:41;5.55;;;2.88;;
24650;SDS011;12783;48.824;8.662;2022-08-21T05:03:08;9.07;;;2.70;;
24650;SDS011;12783;48.824;8.662;2022-08-21T05:05:36;9.25;;;2.88;;
24650;SDS011;12783;48.824;8.662;2022-08-21T05:08:03;7.70;;;2.67;;
24650;SDS011;12783;48.824;8.662;2022-08-21T05:10:31;6.05;;;2.72;;
24650;SDS011;12783;48.824;8.662;2022-08-21T05:12:58;6.38;;;2.50;;
24650;SDS011;12783;48.824;8.662;2022-08-21T05:15:26;6.18;;;2.38;;
24650;SDS011;12783;48.824;8.662;2022-08-21T05:17:53;5.47;;;2.50;;
24650;SDS011;12783;48.824;8.662;2022-08-21T05:20:26;4.43;;;2.70;;
24650;SDS011;12783;48.824;8.662;2022-08-21T05:22:54;5.07;;;2.83;;
24650;SDS011;12783;48.824;8.662;2022-08-21T05:25:21;5.18;;;2.60;;
24650;SDS011;12783;48.824;8.662;2022-08-21T05:27:49;5.57;;;2.60;;
24650;SDS011;12783;48.824;8.662;2022-08-21T05:30:17;6.82;;;2.92;;
24650;SDS011;12783;48.824;8.662;2022-08-21T05:32:45;7.05;;;2.55;;
24650;SDS011;12783;48.824;8.662;2022-08-21T05:35:12;5.60;;;2.55;;
24650;SDS011;12783;48.824;8.662;2022-08-21T05:37:39;5.47;;;3.60;;
24650;SDS011;12783;48.824;8.662;2022-08-21T05:40:06;6.88;;;4.28;;
24650;SDS011;12783;48.824;8.662;2022-08-21T05:42:47;14.45;;;3.33;;
24650;SDS011;12783;48.824;8.662;2022-08-21T05:45:20;6.25;;;3.08;;
24650;SDS011;12783;48.824;8.662;2022-08-21T05:48:19;10.13;;;2.95;;
24650;SDS011;12783;48.824;8.662;2022-08-21T05:50:48;5.40;;;2.40;;
24650;SDS011;12783;48.824;8.662;2022-08-21T05:53:16;11.10;;;2.60;;
24650;SDS011;12783;48.824;8.662;2022-08-21T05:55:44;10.40;;;2.60;;
24650;SDS011;12783;48.824;8.662;2022-08-21T05:58:13;8.52;;;2.60;;
24650;SDS011;12783;48.824;8.662;2022-08-21T06:00:41;8.88;;;2.50;;
24650;SDS011;12783;48.824;8.662;2022-08-21T06:03:12;7.93;;;2.55;;
24650;SDS011;12783;48.824;8.662;2022-08-21T06:05:42;10.88;;;2.42;;
24650;SDS011;12783;48.824;8.662;2022-08-21T06:08:09;6.72;;;2.50;;
24650;SDS011;12783;48.824;8.662;2022-08-21T06:10:36;8.13;;;3.10;;
24650;SDS011;12783;48.824;8.662;2022-08-21T06:13:03;6.85;;;2.72;;
24650;SDS011;12783;48.824;8.662;2022-08-21T06:15:30;8.05;;;3.03;;
24650;SDS011;12783;48.824;8.662;2022-08-21T06:17:57;8.40;;;2.78;;
24650;SDS011;12783;48.824;8.662;2022-08-21T06:20:24;10.70;;;2.65;;
24650;SDS011;12783;48.824;8.662;2022-08-21T06:22:51;9.40;;;3.13;;
24650;SDS011;12783;48.824;8.662;2022-08-21T06:25:18;7.38;;;2.78;;
24650;SDS011;12783;48.824;8.662;2022-08-21T06:27:45;7.38;;;2.88;;
24650;SDS011;12783;48.824;8.662;2022-08-21T06:30:13;7.80;;;2.88;;
24650;SDS011;12783;48.824;8.662;2022-08-21T06:32:40;6.00;;;3.05;;
24650;SDS011;12783;48.824;8.662;2022-08-21T06:35:06;12.65;;;3.42;;
24650;SDS011;12783;48.824;8.662;2022-08-21T06:37:33;11.93;;;2.90;;
24650;SDS011;12783;48.824;8.662;2022-08-21T06:40:00;6.90;;;2.92;;
24650;SDS011;12783;48.824;8.662;2022-08-21T06:42:28;8.45;;;3.00;;
24650;SDS011;12783;48.824;8.662;2022-08-21T06:44:56;6.85;;;2.70;;
24650;SDS011;12783;48.824;8.662;2022-08-21T06:47:23;7.32;;;2.83;;
24650;SDS011;12783;48.824;8.662;2022-08-21T06:49:50;8.68;;;2.70;;
24650;SDS011;12783;48.824;8.662;2022-08-21T06:52:17;8.32;;;2.80;;
24650;SDS011;12783;48.824;8.662;2022-08-21T06:54:43;7.72;;;2.70;;
24650;SDS011;12783;48.824;8.662;2022-08-21T06:57:10;6.03;;;2.50;;
24650;SDS011;12783;48.824;8.662;2022-08-21T06:59:37;10.65;;;2.85;;
24650;SDS011;12783;48.824;8.662;2022-08-21T07:02:04;9.32;;;2.78;;
24650;SDS011;12783;48.824;8.662;2022-08-21T07:04:30;5.68;;;2.55;;
24650;SDS011;12783;48.824;8.662;2022-08-21T07:06:57;7.15;;;2.78;;
24650;SDS011;12783;48.824;8.662;2022-08-21T07:09:24;6.43;;;2.40;;
24650;SDS011;12783;48.824;8.662;2022-08-21T07:11:52;6.30;;;2.45;;
24650;SDS011;12783;48.824;8.662;2022-08-21T07:14:21;8.45;;;2.67;;
24650;SDS011;12783;48.824;8.662;2022-08-21T07:16:48;6.55;;;2.70;;
24650;SDS011;12783;48.824;8.662;2022-08-21T07:19:17;7.00;;;2.90;;
24650;SDS011;12783;48.824;8.662;2022-08-21T07:21:44;8.77;;;2.83;;
24650;SDS011;12783;48.824;8.662;2022-08-21T07:24:11;11.13;;;3.22;;
24650;SDS011;12783;48.824;8.662;2022-08-21T07:26:37;8.73;;;2.70;;
24650;SDS011;12783;48.824;8.662;2022-08-21T07:29:04;7.57;;;3.17;;
24650;SDS011;12783;48.824;8.662;2022-08-21T07:31:31;9.07;;;2.80;;
24650;SDS011;12783;48.824;8.662;2022-08-21T07:33:58;8.90;;;2.95;;
24650;SDS011;12783;48.824;8.662;2022-08-21T07:36:25;5.53;;;2.40;;
24650;SDS011;12783;48.824;8.662;2022-08-21T07:38:51;9.85;;;3.10;;
24650;SDS011;12783;48.824;8.662;2022-08-21T07:41:20;8.23;;;2.78;;
24650;SDS011;12783;48.824;8.662;2022-08-21T07:43:49;6.75;;;2.67;;
24650;SDS011;12783;48.824;8.662;2022-08-21T07:46:18;14.13;;;2.83;;
24650;SDS011;12783;48.824;8.662;2022-08-21T07:48:45;8.90;;;3.08;;
24650;SDS011;12783;48.824;8.662;2022-08-21T07:51:14;6.70;;;2.70;;
24650;SDS011;12783;48.824;8.662;2022-08-21T07:53:42;7.15;;;2.55;;
24650;SDS011;12783;48.824;8.662;2022-08-21T07:56:17;8.77;;;2.47;;
24650;SDS011;12783;48.824;8.662;2022-08-21T07:58:44;6.50;;;2.72;;
24650;SDS011;12783;48.824;8.662;2022-08-21T08:01:11;7.15;;;3.28;;
24650;SDS011;12783;48.824;8.662;2022-08-21T08:03:38;6.35;;;2.65;;
24650;SDS011;12783;48.824;8.662;2022-08-21T08:06:05;9.70;;;3.03;;
24650;SDS011;12783;48.824;8.662;2022-08-21T08:08:34;9.05;;;2.92;;
24650;SDS011;12783;48.824;8.662;2022-08-21T08:11:01;8.55;;;2.58;;
24650;SDS011;12783;48.824;8.662;2022-08-21T08:13:28;12.10;;;3.10;;
24650;SDS011;12783;48.824;8.662;2022-08-21T08:15:54;9.25;;;2.90;;
24650;SDS011;12783;48.824;8.662;2022-08-21T08:18:21;8.38;;;3.10;;
24650;SDS011;12783;48.824;8.662;2022-08-21T08:20:48;6.38;;;3.05;;
24650;SDS011;12783;48.824;8.662;2022-08-21T08:23:15;8.00;;;2.78;;
24650;SDS011;12783;48.824;8.662;2022-08-21T08:25:41;7.30;;;2.88;;
24650;SDS011;12783;48.824;8.662;2022-08-21T08:28:08;6.93;;;2.95;;
24650;SDS011;12783;48.824;8.662;2022-08-21T08:30:42;9.52;;;3.20;;
24650;SDS011;12783;48.824;8.662;2022-08-21T08:33:10;6.20;;;2.60;;
24650;SDS011;12783;48.824;8.662;2022-08-21T08:35:37;7.88;;;2.88;;
24650;SDS011;12783;48.824;8.662;2022-08-21T08:38:04;6.32;;;2.65;;
24650;SDS011;12783;48.824;8.662;2022-08-21T08:42:59;6.93;;;2.40;;
24650;SDS011;12783;48.824;8.662;2022-08-21T08:45:26;9.00;;;2.83;;
24650;SDS011;12783;48.824;8.662;2022-08-21T08:48:02;13.10;;;3.30;;
24650;SDS011;12783;48.824;8.662;2022-08-21T08:50:49;8.05;;;2.80;;
24650;SDS011;12783;48.824;8.662;2022-08-21T08:53:21;6.88;;;2.95;;
24650;SDS011;12783;48.824;8.662;2022-08-21T08:55:50;8.95;;;3.28;;
24650;SDS011;12783;48.824;8.662;2022-08-21T08:58:19;11.25;;;3.28;;
24650;SDS011;12783;48.824;8.662;2022-08-21T09:00:56;5.97;;;2.80;;
24650;SDS011;12783;48.824;8.662;2022-08-21T09:03:23;9.00;;;3.08;;
24650;SDS011;12783;48.824;8.662;2022-08-21T09:08:46;7.13;;;2.50;;
24650;SDS011;12783;48.824;8.662;2022-08-21T09:11:29;9.07;;;3.20;;
24650;SDS011;12783;48.824;8.662;2022-08-21T09:14:05;7.88;;;2.78;;
24650;SDS011;12783;48.824;8.662;2022-08-21T09:22:47;10.93;;;3.22;;
24650;SDS011;12783;48.824;8.662;2022-08-21T09:25:21;4.28;;;2.17;;
24650;SDS011;12783;48.824;8.662;2022-08-21T09:27:49;8.80;;;3.17;;
24650;SDS011;12783;48.824;8.662;2022-08-21T09:30:17;4.38;;;2.30;;
24650;SDS011;12783;48.824;8.662;2022-08-21T09:32:45;10.05;;;2.70;;
24650;SDS011;12783;48.824;8.662;2022-08-21T09:35:17;5.05;;;2.38;;
24650;SDS011;12783;48.824;8.662;2022-08-21T09:37:47;7.22;;;2.60;;
24650;SDS011;12783;48.824;8.662;2022-08-21T09:40:38;8.05;;;3.10;;
24650;SDS011;12783;48.824;8.662;2022-08-21T09:45:41;6.82;;;2.90;;
24650;SDS011;12783;48.824;8.662;2022-08-21T09:48:10;9.57;;;2.70;;
24650;SDS011;12783;48.824;8.662;2022-08-21T09:50:42;7.22;;;2.80;;
24650;SDS011;12783;48.824;8.662;2022-08-21T09:53:20;7.22;;;2.65;;
24650;SDS011;12783;48.824;8.662;2022-08-21T09:55:49;6.65;;;2.85;;
24650;SDS011;12783;48.824;8.662;2022-08-21T09:58:37;6.88;;;2.95;;
24650;SDS011;12783;48.824;8.662;2022-08-21T10:01:05;7.88;;;2.60;;
24650;SDS011;12783;48.824;8.662;2022-08-21T10:03:33;7.18;;;3.10;;
24650;SDS011;12783;48.824;8.662;2022-08-21T10:06:04;6.78;;;2.65;;
24650;SDS011;12783;48.824;8.662;2022-08-21T10:08:35;10.25;;;2.88;;
24650;SDS011;12783;48.824;8.662;2022-08-21T10:11:14;10.00;;;2.67;;
24650;SDS011;12783;48.824;8.662;2022-08-21T10:22:00;5.03;;;2.60;;
24650;SDS011;12783;48.824;8.662;2022-08-21T10:24:52;7.88;;;2.95;;
24650;SDS011;12783;48.824;8.662;2022-08-21T10:27:42;5.53;;;2.58;;
24650;SDS011;12783;48.824;8.662;2022-08-21T10:30:31;5.93;;;2.28;;
24650;SDS011;12783;48.824;8.662;2022-08-21T10:36:45;9.85;;;2.75;;
24650;SDS011;12783;48.824;8.662;2022-08-21T10:47:49;6.85;;;2.40;;
24650;SDS011;12783;48.824;8.662;2022-08-21T10:50:30;5.27;;;2.37;;
24650;SDS011;12783;48.824;8.662;2022-08-21T10:58:27;6.95;;;2.30;;
24650;SDS011;12783;48.824;8.662;2022-08-21T11:00:58;4.07;;;2.25;;
24650;SDS011;12783;48.824;8.662;2022-08-21T11:03:35;7.43;;;2.90;;
24650;SDS011;12783;48.824;8.662;2022-08-21T11:06:27;8.90;;;2.50;;
24650;SDS011;12783;48.824;8.662;2022-08-21T11:09:04;6.63;;;2.67;;
24650;SDS011;12783;48.824;8.662;2022-08-21T11:11:41;9.13;;;2.60;;
24650;SDS011;12783;48.824;8.662;2022-08-21T11:17:27;7.38;;;2.40;;
24650;SDS011;12783;48.824;8.662;2022-08-21T11:20:11;8.18;;;2.58;;
24650;SDS011;12783;48.824;8.662;2022-08-21T11:25:41;6.10;;;2.50;;
24650;SDS011;12783;48.824;8.662;2022-08-21T11:28:16;5.45;;;2.40;;
24650;SDS011;12783;48.824;8.662;2022-08-21T11:31:02;4.03;;;2.00;;
24650;SDS011;12783;48.824;8.662;2022-08-21T11:33:45;5.25;;;2.30;;
24650;SDS011;12783;48.824;8.662;2022-08-21T11:36:23;5.82;;;2.63;;
24650;SDS011;12783;48.824;8.662;2022-08-21T11:41:36;5.78;;;2.50;;
24650;SDS011;12783;48.824;8.662;2022-08-21T11:44:10;7.65;;;2.40;;
24650;SDS011;12783;48.824;8.662;2022-08-21T11:50:15;3.17;;;2.03;;
24650;SDS011;12783;48.824;8.662;2022-08-21T11:53:03;3.97;;;2.30;;
24650;SDS011;12783;48.824;8.662;2022-08-21T12:00:49;5.57;;;2.53;;
24650;SDS011;12783;48.824;8.662;2022-08-21T12:05:56;11.48;;;2.60;;
24650;SDS011;12783;48.824;8.662;2022-08-21T12:13:34;11.80;;;2.92;;
24650;SDS011;12783;48.824;8.662;2022-08-21T12:16:27;8.18;;;2.65;;
24650;SDS011;12783;48.824;8.662;2022-08-21T12:19:06;6.43;;;2.20;;
24650;SDS011;12783;48.824;8.662;2022-08-21T12:21:52;4.13;;;1.92;;
24650;SDS011;12783;48.824;8.662;2022-08-21T12:26:58;7.88;;;2.60;;
24650;SDS011;12783;48.824;8.662;2022-08-21T12:29:47;6.63;;;2.55;;
24650;SDS011;12783;48.824;8.662;2022-08-21T12:34:46;11.30;;;2.72;;
24650;SDS011;12783;48.824;8.662;2022-08-21T12:39:57;7.68;;;2.33;;
24650;SDS011;12783;48.824;8.662;2022-08-21T12:45:20;8.40;;;2.65;;
24650;SDS011;12783;48.824;8.662;2022-08-21T12:47:59;7.22;;;2.45;;
24650;SDS011;12783;48.824;8.662;2022-08-21T12:50:53;7.45;;;2.53;;
24650;SDS011;12783;48.824;8.662;2022-08-21T12:55:52;8.00;;;2.45;;
24650;SDS011;12783;48.824;8.662;2022-08-21T12:58:25;3.65;;;2.22;;
24650;SDS011;12783;48.824;8.662;2022-08-21T13:00:54;4.85;;;2.30;;
24650;SDS011;12783;48.824;8.662;2022-08-21T13:03:29;5.38;;;2.60;;
24650;SDS011;12783;48.824;8.662;2022-08-21T13:05:57;6.50;;;2.58;;
24650;SDS011;12783;48.824;8.662;2022-08-21T13:08:24;5.68;;;2.20;;
24650;SDS011;12783;48.824;8.662;2022-08-21T13:11:03;8.05;;;2.50;;
24650;SDS011;12783;48.824;8.662;2022-08-21T13:13:40;4.85;;;2.20;;
24650;SDS011;12783;48.824;8.662;2022-08-21T13:16:18;4.05;;;2.25;;
24650;SDS011;12783;48.824;8.662;2022-08-21T13:21:28;6.82;;;2.63;;
24650;SDS011;12783;48.824;8.662;2022-08-21T13:24:17;5.78;;;2.50;;
24650;SDS011;12783;48.824;8.662;2022-08-21T13:27:16;5.88;;;2.20;;
24650;SDS011;12783;48.824;8.662;2022-08-21T13:30:09;4.05;;;2.22;;
24650;SDS011;12783;48.824;8.662;2022-08-21T13:32:44;7.93;;;2.70;;
24650;SDS011;12783;48.824;8.662;2022-08-21T13:35:23;7.78;;;2.53;;
24650;SDS011;12783;48.824;8.662;2022-08-21T13:37:52;7.32;;;2.38;;
24650;SDS011;12783;48.824;8.662;2022-08-21T13:40:26;7.95;;;2.50;;
24650;SDS011;12783;48.824;8.662;2022-08-21T13:43:10;5.53;;;2.38;;
24650;SDS011;12783;48.824;8.662;2022-08-21T13:45:39;6.45;;;2.75;;
24650;SDS011;12783;48.824;8.662;2022-08-21T13:48:10;3.45;;;1.90;;
24650;SDS011;12783;48.824;8.662;2022-08-21T13:50:37;5.15;;;2.22;;
24650;SDS011;12783;48.824;8.662;2022-08-21T13:53:06;7.82;;;2.45;;
24650;SDS011;12783;48.824;8.662;2022-08-21T13:55:41;5.20;;;2.00;;
24650;SDS011;12783;48.824;8.662;2022-08-21T13:58:09;7.50;;;2.38;;
24650;SDS011;12783;48.824;8.662;2022-08-21T14:00:55;4.70;;;2.13;;
24650;SDS011;12783;48.824;8.662;2022-08-21T14:03:26;3.88;;;2.00;;
24650;SDS011;12783;48.824;8.662;2022-08-21T14:05:56;3.00;;;1.85;;
24650;SDS011;12783;48.824;8.662;2022-08-21T14:08:27;5.45;;;2.53;;
24650;SDS011;12783;48.824;8.662;2022-08-21T14:10:58;6.50;;;2.08;;
24650;SDS011;12783;48.824;8.662;2022-08-21T14:16:13;5.90;;;1.85;;
24650;SDS011;12783;48.824;8.662;2022-08-21T14:18:46;5.68;;;2.35;;
24650;SDS011;12783;48.824;8.662;2022-08-21T14:21:34;5.57;;;2.78;;
24650;SDS011;12783;48.824;8.662;2022-08-21T14:24:04;6.47;;;2.60;;
24650;SDS011;12783;48.824;8.662;2022-08-21T14:26:42;6.15;;;2.22;;
24650;SDS011;12783;48.824;8.662;2022-08-21T14:29:16;4.75;;;2.20;;
24650;SDS011;12783;48.824;8.662;2022-08-21T14:31:48;6.60;;;2.40;;
24650;SDS011;12783;48.824;8.662;2022-08-21T14:34:24;5.93;;;2.42;;
24650;SDS011;12783;48.824;8.662;2022-08-21T14:36:55;5.95;;;2.10;;
24650;SDS011;12783;48.824;8.662;2022-08-21T14:39:23;7.15;;;2.50;;
24650;SDS011;12783;48.824;8.662;2022-08-21T14:41:49;3.55;;;2.00;;
24650;SDS011;12783;48.824;8.662;2022-08-21T14:44:18;6.00;;;2.28;;
24650;SDS011;12783;48.824;8.662;2022-08-21T14:46:45;6.22;;;2.70;;
24650;SDS011;12783;48.824;8.662;2022-08-21T14:49:25;3.88;;;2.22;;
24650;SDS011;12783;48.824;8.662;2022-08-21T14:51:57;7.65;;;2.53;;
24650;SDS011;12783;48.824;8.662;2022-08-21T14:54:25;4.72;;;2.42;;
24650;SDS011;12783;48.824;8.662;2022-08-21T14:57:02;5.68;;;2.10;;
24650;SDS011;12783;48.824;8.662;2022-08-21T14:59:32;8.65;;;2.20;;
24650;SDS011;12783;48.824;8.662;2022-08-21T15:01:59;6.88;;;2.47;;
24650;SDS011;12783;48.824;8.662;2022-08-21T15:04:26;5.25;;;2.17;;
24650;SDS011;12783;48.824;8.662;2022-08-21T15:06:53;3.50;;;2.10;;
24650;SDS011;12783;48.824;8.662;2022-08-21T15:09:20;4.80;;;2.35;;
24650;SDS011;12783;48.824;8.662;2022-08-21T15:11:47;3.65;;;2.08;;
24650;SDS011;12783;48.824;8.662;2022-08-21T15:14:17;6.45;;;1.90;;
24650;SDS011;12783;48.824;8.662;2022-08-21T15:16:47;2.88;;;2.00;;
24650;SDS011;12783;48.824;8.662;2022-08-21T15:19:14;5.97;;;2.38;;
24650;SDS011;12783;48.824;8.662;2022-08-21T15:21:41;4.15;;;1.92;;
24650;SDS011;12783;48.824;8.662;2022-08-21T15:24:08;7.07;;;2.10;;
24650;SDS011;12783;48.824;8.662;2022-08-21T15:26:35;3.83;;;1.90;;
24650;SDS011;12783;48.824;8.662;2022-08-21T15:29:02;4.68;;;2.30;;
24650;SDS011;12783;48.824;8.662;2022-08-21T15:31:32;5.93;;;2.08;;
24650;SDS011;12783;48.824;8.662;2022-08-21T15:33:59;9.32;;;3.28;;
24650;SDS011;12783;48.824;8.662;2022-08-21T15:36:26;3.97;;;1.98;;
24650;SDS011;12783;48.824;8.662;2022-08-21T15:38:53;4.20;;;1.95;;
24650;SDS011;12783;48.824;8.662;2022-08-21T15:41:19;4.00;;;2.05;;
24650;SDS011;12783;48.824;8.662;2022-08-21T15:43:50;4.63;;;1.95;;
24650;SDS011;12783;48.824;8.662;2022-08-21T15:46:18;6.32;;;1.90;;
24650;SDS011;12783;48.824;8.662;2022-08-21T15:48:45;3.78;;;1.70;;
24650;SDS011;12783;48.824;8.662;2022-08-21T15:51:13;4.80;;;2.03;;
24650;SDS011;12783;48.824;8.662;2022-08-21T15:53:40;5.82;;;2.22;;
24650;SDS011;12783;48.824;8.662;2022-08-21T15:56:51;7.78;;;2.58;;
24650;SDS011;12783;48.824;8.662;2022-08-21T15:59:12;5.40;;;2.30;;
24650;SDS011;12783;48.824;8.662;2022-08-21T16:01:43;4.65;;;2.10;;
24650;SDS011;12783;48.824;8.662;2022-08-21T16:04:13;5.35;;;2.20;;
24650;SDS011;12783;48.824;8.662;2022-08-21T16:06:45;6.03;;;2.60;;
24650;SDS011;12783;48.824;8.662;2022-08-21T16:09:22;5.20;;;2.13;;
24650;SDS011;12783;48.824;8.662;2022-08-21T16:11:49;6.15;;;2.00;;
24650;SDS011;12783;48.824;8.662;2022-08-21T16:14:16;5.13;;;2.03;;
24650;SDS011;12783;48.824;8.662;2022-08-21T16:16:43;3.45;;;1.80;;
24650;SDS011;12783;48.824;8.662;2022-08-21T16:19:10;4.45;;;2.20;;
24650;SDS011;12783;48.824;8.662;2022-08-21T16:21:38;4.07;;;1.70;;
24650;SDS011;12783;48.824;8.662;2022-08-21T16:24:05;4.30;;;1.80;;
24650;SDS011;12783;48.824;8.662;2022-08-21T16:26:32;5.68;;;2.10;;
24650;SDS011;12783;48.824;8.662;2022-08-21T16:28:59;3.05;;;1.80;;
24650;SDS011;12783;48.824;8.662;2022-08-21T16:31:28;5.40;;;2.20;;
24650;SDS011;12783;48.824;8.662;2022-08-21T16:33:56;6.75;;;2.10;;